Thorhild, Canada
Current Conditions -  °F | °C
As of 12:00 PM on Monday 22 Dec 2014 (Local Time) from CYED Reporting Station
Broken Clouds Broken Clouds  
Wind Chill: 23°   Ceiling: 5000
Heat Index: 32°   Visibility: 9mi
Dew Point: 25°   Wind: 12mph
Humidity: 75%   Direction: 280°W
Pressure: 29.84"   Gusts: NA
Location:  54.15°N, 113.12°W
Report Text: CYED 221900Z AUTO 28010KT 9SM BKN050 M00/M04 A2984 RMK SLP138
Loading
Personal Weather Stations






























Interactive Weather Map New forecast layout! Learn more

10-Day Weather Forecast

Advertisements
Track Severe Weather on mobile